Athina L — A8YS8 — position and weather

sailwx.info

Track history (hours):
 
Tides and Currents Weather Stations Pressure Air Temp Water Temp Dewpoint Dewpoint Depression Visibility Wind Speed Wind Dir Waves Ship Positions

Athina L

Last reported at 2018-Apr-15 15:28 UTC. Time now 2018-Apr-22 16:22 UTC.
Position N 36°18' E 015°04'.

Length 229 m; draft 14.2 m.

Type: Cargo ship. MMSI: 636015124.

Date/timePositionNaut miles runAvg speedWind from/ knotsBaromVisibWave heightAir tempDewpointWater temp
2018-Apr-15 15:28N 36°18' E 015°04'713.1
2018-Apr-15 14:55N 36°20' E 014°56'510.8
2018-Apr-15 14:27N 36°20' E 014°49'4 8.6
2018-Apr-15 13:59N 36°21' E 014°44'510.5
2018-Apr-15 13:28N 36°22' E 014°38'510.7
2018-Apr-15 12:59N 36°22' E 014°31'5 9.6
2018-Apr-15 12:30N 36°23' E 014°26'510.4
2018-Apr-15 12:00N 36°24' E 014°19'611.2
2018-Apr-15 11:30N 36°24' E 014°12'510.5
2018-Apr-15 10:59N 36°25' E 014°06'712.2
2018-Apr-15 10:27N 36°26' E 013°58'4 9.0
2018-Apr-15 10:00N 36°27' E 013°53'6 9.9
2018-Apr-15 09:22N 36°28' E 013°45'410.5
2018-Apr-15 08:59N 36°30' E 013°40'510.5
2018-Apr-15 08:30N 36°32' E 013°35'611.3
2018-Apr-15 07:58N 36°34' E 013°28'18710.1
2018-Apr-14 13:31N 37°35' E 009°47'011.4
2018-Apr-14 13:30N 37°35' E 009°46'  
2018-Apr-11 23:14N 36°01' W 005°05'412.6
2018-Apr-11 22:56N 36°00' W 005°10'613.6
2018-Apr-11 22:31N 35°59' W 005°17'714.3
2018-Apr-11 22:01N 35°58' W 005°26'261 9.4
2018-Apr-10 18:19N 38°15' W 010°04'510.8
2018-Apr-10 17:51N 38°20' W 010°06'410.8
2018-Apr-10 17:30N 38°24' W 010°07'510.9
2018-Apr-10 17:01N 38°29' W 010°08'1011.1
2018-Apr-10 16:09N 38°38' W 010°11'211.0
2018-Apr-10 15:59N 38°40' W 010°12'511.0
2018-Apr-10 15:30N 38°45' W 010°12'611.1
2018-Apr-10 15:00N 38°51' W 010°12'511.1
2018-Apr-10 14:30N 38°56' W 010°12'611.2
2018-Apr-10 14:00N 39°02' W 010°11'611.0
2018-Apr-10 13:30N 39°07' W 010°11'510.8
2018-Apr-10 13:00N 39°13' W 010°11'611.0
2018-Apr-10 12:29N 39°18' W 010°11'  
2018-Apr-08 02:02N 48°51' W 005°45'811.2
2018-Apr-08 01:18N 48°58' W 005°37'311.0
2018-Apr-08 01:00N 49°01' W 005°34'4110.5
2018-Apr-07 21:04N 49°36' W 005°00'4 9.4
2018-Apr-07 20:40N 49°37' W 004°55'5 9.6
2018-Apr-07 20:05N 49°38' W 004°47'1 9.4
2018-Apr-07 19:58N 49°39' W 004°45'4 9.6
2018-Apr-07 19:30N 49°40' W 004°38'910.2
2018-Apr-07 18:40N 49°42' W 004°26'310.2
2018-Apr-07 18:24N 49°43' W 004°22'710.5
2018-Apr-07 17:46N 49°44' W 004°11'1510.7
2018-Apr-07 16:21N 49°48' W 003°49'710.7
2018-Apr-07 15:44N 49°50' W 003°39'210.5
2018-Apr-07 15:30N 49°51' W 003°35'510.3
2018-Apr-07 15:00N 49°52' W 003°28'510.2
2018-Apr-07 14:30N 49°53' W 003°20'610.0
2018-Apr-07 13:56N 49°55' W 003°12'4 9.7
2018-Apr-07 13:31N 49°56' W 003°06'5 9.4
2018-Apr-07 13:00N 49°57' W 002°58'5 9.2
2018-Apr-07 12:30N 49°59' W 002°52'5 9.0
2018-Apr-07 12:00N 49°60' W 002°45'4 8.9
2018-Apr-07 11:31N 50°01' W 002°38'4 8.7
2018-Apr-07 11:00N 50°02' W 002°32'5 8.8
2018-Apr-07 10:26N 50°03' W 002°24'11 9.3
2018-Apr-07 09:17N 50°06' W 002°08'310.0
2018-Apr-07 09:00N 50°07' W 002°04'510.3
2018-Apr-07 08:30N 50°08' W 001°56'611.6
2018-Apr-07 08:01N 50°10' W 001°47'612.3
2018-Apr-07 07:31N 50°12' W 001°38'612.7
2018-Apr-07 07:00N 50°13' W 001°28'713.1
2018-Apr-07 06:30N 50°15' W 001°19'713.5
2018-Apr-07 06:00N 50°17' W 001°08'713.4
2018-Apr-07 05:30N 50°19' W 000°58'612.9
2018-Apr-07 05:00N 50°20' W 000°48'612.5
2018-Apr-07 04:29N 50°22' W 000°39'612.3
2018-Apr-07 04:00N 50°24' W 000°30'611.8
2018-Apr-07 03:30N 50°25' W 000°21'611.4
2018-Apr-07 03:00N 50°27' W 000°12'510.9
2018-Apr-07 02:30N 50°28' W 000°04'510.4
2018-Apr-07 02:00N 50°29' E 000°04'5 9.9
2018-Apr-07 01:30N 50°31' E 000°12'5 9.6
2018-Apr-07 01:00N 50°32' E 000°19'5 9.6
2018-Apr-07 00:30N 50°33' E 000°26'5 9.7
2018-Apr-07 00:00N 50°34' E 000°33'510.0
2018-Apr-06 23:30N 50°37' E 000°41'510.7
2018-Apr-06 23:00N 50°40' E 000°48'611.3
2018-Apr-06 22:30N 50°43' E 000°55'611.7
2018-Apr-06 22:00N 50°47' E 001°02'611.9
2018-Apr-06 21:30N 50°51' E 001°07'612.0
2018-Apr-06 21:00N 50°56' E 001°14'711.9
2018-Apr-06 20:26N 51°01' E 001°21'511.4
2018-Apr-06 20:00N 51°04' E 001°28'510.8
2018-Apr-06 19:30N 51°07' E 001°34'510.0
2018-Apr-06 19:00N 51°10' E 001°40'5 9.8
2018-Apr-06 18:30N 51°14' E 001°46'5 9.4
2018-Apr-06 18:00N 51°18' E 001°50'5 9.1
2018-Apr-06 17:30N 51°22' E 001°53'5 9.3
2018-Apr-06 17:00N 51°25' E 001°58'5 9.5
2018-Apr-06 16:30N 51°29' E 002°03'5 9.9
2018-Apr-06 16:00N 51°33' E 002°07'510.4
2018-Apr-06 15:30N 51°37' E 002°12'510.7
2018-Apr-06 15:00N 51°42' E 002°17'611.2
2018-Apr-06 14:30N 51°46' E 002°23'611.9
2018-Apr-06 13:59N 51°51' E 002°29'712.3
2018-Apr-06 13:24N 51°57' E 002°34'2312.4
2018-Apr-06 11:34N 52°18' E 002°50'1511.6
2018-Apr-06 10:16N 52°32' E 003°00'2010.4
2018-Apr-06 08:21N 52°50' E 003°13'36 9.7
2018-Apr-06 04:35N 53°25' E 003°30'2 9.7
2018-Apr-06 04:24N 53°27' E 003°31'910.6
2018-Apr-06 03:35N 53°35' E 003°37'211.1
2018-Apr-06 03:27N 53°36' E 003°38'611.1
2018-Apr-06 02:57N 53°42' E 003°41'510.7
2018-Apr-06 02:27N 53°46' E 003°47'611.2
2018-Apr-06 01:52N 53°50' E 003°55'611.0
2018-Apr-06 01:20N 53°54' E 004°02'410.8
2018-Apr-06 00:56N 53°56' E 004°08'510.6
2018-Apr-06 00:30N 53°59' E 004°14'  
Track history (hours):
 
Tides and Currents Weather Stations Pressure Air Temp Water Temp Dewpoint Dewpoint Depression Visibility Wind Speed Wind Dir Waves Ship Positions

Athina L

Last reported at 2018-Apr-15 15:28 UTC. Time now 2018-Apr-22 16:22 UTC.
Position N 36°18' E 015°04'.

Length 229 m; draft 14.2 m.

Type: Cargo ship. MMSI: 636015124.

Date/timePositionNaut miles runAvg speedWind from/ knotsBaromVisibWave heightAir tempDewpointWater temp
2018-Apr-15 15:28N 36°18' E 015°04'713.1
2018-Apr-15 14:55N 36°20' E 014°56'510.8
2018-Apr-15 14:27N 36°20' E 014°49'4 8.6
2018-Apr-15 13:59N 36°21' E 014°44'510.5
2018-Apr-15 13:28N 36°22' E 014°38'510.7
2018-Apr-15 12:59N 36°22' E 014°31'5 9.6
2018-Apr-15 12:30N 36°23' E 014°26'510.4
2018-Apr-15 12:00N 36°24' E 014°19'611.2
2018-Apr-15 11:30N 36°24' E 014°12'510.5
2018-Apr-15 10:59N 36°25' E 014°06'712.2
2018-Apr-15 10:27N 36°26' E 013°58'4 9.0
2018-Apr-15 10:00N 36°27' E 013°53'6 9.9
2018-Apr-15 09:22N 36°28' E 013°45'410.5
2018-Apr-15 08:59N 36°30' E 013°40'510.5
2018-Apr-15 08:30N 36°32' E 013°35'611.3
2018-Apr-15 07:58N 36°34' E 013°28'18710.1
2018-Apr-14 13:31N 37°35' E 009°47'011.4
2018-Apr-14 13:30N 37°35' E 009°46'  
2018-Apr-11 23:14N 36°01' W 005°05'412.6
2018-Apr-11 22:56N 36°00' W 005°10'613.6
2018-Apr-11 22:31N 35°59' W 005°17'714.3
2018-Apr-11 22:01N 35°58' W 005°26'261 9.4
2018-Apr-10 18:19N 38°15' W 010°04'510.8
2018-Apr-10 17:51N 38°20' W 010°06'410.8
2018-Apr-10 17:30N 38°24' W 010°07'510.9
2018-Apr-10 17:01N 38°29' W 010°08'1011.1
2018-Apr-10 16:09N 38°38' W 010°11'211.0
2018-Apr-10 15:59N 38°40' W 010°12'511.0
2018-Apr-10 15:30N 38°45' W 010°12'611.1
2018-Apr-10 15:00N 38°51' W 010°12'511.1
2018-Apr-10 14:30N 38°56' W 010°12'611.2
2018-Apr-10 14:00N 39°02' W 010°11'611.0
2018-Apr-10 13:30N 39°07' W 010°11'510.8
2018-Apr-10 13:00N 39°13' W 010°11'611.0
2018-Apr-10 12:29N 39°18' W 010°11'  
2018-Apr-08 02:02N 48°51' W 005°45'811.2
2018-Apr-08 01:18N 48°58' W 005°37'311.0
2018-Apr-08 01:00N 49°01' W 005°34'4110.5
2018-Apr-07 21:04N 49°36' W 005°00'4 9.4
2018-Apr-07 20:40N 49°37' W 004°55'5 9.6
2018-Apr-07 20:05N 49°38' W 004°47'1 9.4
2018-Apr-07 19:58N 49°39' W 004°45'4 9.6
2018-Apr-07 19:30N 49°40' W 004°38'910.2
2018-Apr-07 18:40N 49°42' W 004°26'310.2
2018-Apr-07 18:24N 49°43' W 004°22'710.5
2018-Apr-07 17:46N 49°44' W 004°11'1510.7
2018-Apr-07 16:21N 49°48' W 003°49'710.7
2018-Apr-07 15:44N 49°50' W 003°39'210.5
2018-Apr-07 15:30N 49°51' W 003°35'510.3
2018-Apr-07 15:00N 49°52' W 003°28'510.2
2018-Apr-07 14:30N 49°53' W 003°20'610.0
2018-Apr-07 13:56N 49°55' W 003°12'4 9.7
2018-Apr-07 13:31N 49°56' W 003°06'5 9.4
2018-Apr-07 13:00N 49°57' W 002°58'5 9.2
2018-Apr-07 12:30N 49°59' W 002°52'5 9.0
2018-Apr-07 12:00N 49°60' W 002°45'4 8.9
2018-Apr-07 11:31N 50°01' W 002°38'4 8.7
2018-Apr-07 11:00N 50°02' W 002°32'5 8.8
2018-Apr-07 10:26N 50°03' W 002°24'11 9.3
2018-Apr-07 09:17N 50°06' W 002°08'310.0
2018-Apr-07 09:00N 50°07' W 002°04'510.3
2018-Apr-07 08:30N 50°08' W 001°56'611.6
2018-Apr-07 08:01N 50°10' W 001°47'612.3
2018-Apr-07 07:31N 50°12' W 001°38'612.7
2018-Apr-07 07:00N 50°13' W 001°28'713.1
2018-Apr-07 06:30N 50°15' W 001°19'713.5
2018-Apr-07 06:00N 50°17' W 001°08'713.4
2018-Apr-07 05:30N 50°19' W 000°58'612.9
2018-Apr-07 05:00N 50°20' W 000°48'612.5
2018-Apr-07 04:29N 50°22' W 000°39'612.3
2018-Apr-07 04:00N 50°24' W 000°30'611.8
2018-Apr-07 03:30N 50°25' W 000°21'611.4
2018-Apr-07 03:00N 50°27' W 000°12'510.9
2018-Apr-07 02:30N 50°28' W 000°04'510.4
2018-Apr-07 02:00N 50°29' E 000°04'5 9.9
2018-Apr-07 01:30N 50°31' E 000°12'5 9.6
2018-Apr-07 01:00N 50°32' E 000°19'5 9.6
2018-Apr-07 00:30N 50°33' E 000°26'5 9.7
2018-Apr-07 00:00N 50°34' E 000°33'510.0
2018-Apr-06 23:30N 50°37' E 000°41'510.7
2018-Apr-06 23:00N 50°40' E 000°48'611.3
2018-Apr-06 22:30N 50°43' E 000°55'611.7
2018-Apr-06 22:00N 50°47' E 001°02'611.9
2018-Apr-06 21:30N 50°51' E 001°07'612.0
2018-Apr-06 21:00N 50°56' E 001°14'711.9
2018-Apr-06 20:26N 51°01' E 001°21'511.4
2018-Apr-06 20:00N 51°04' E 001°28'510.8
2018-Apr-06 19:30N 51°07' E 001°34'510.0
2018-Apr-06 19:00N 51°10' E 001°40'5 9.8
2018-Apr-06 18:30N 51°14' E 001°46'5 9.4
2018-Apr-06 18:00N 51°18' E 001°50'5 9.1
2018-Apr-06 17:30N 51°22' E 001°53'5 9.3
2018-Apr-06 17:00N 51°25' E 001°58'5 9.5
2018-Apr-06 16:30N 51°29' E 002°03'5 9.9
2018-Apr-06 16:00N 51°33' E 002°07'510.4
2018-Apr-06 15:30N 51°37' E 002°12'510.7
2018-Apr-06 15:00N 51°42' E 002°17'611.2
2018-Apr-06 14:30N 51°46' E 002°23'611.9
2018-Apr-06 13:59N 51°51' E 002°29'712.3
2018-Apr-06 13:24N 51°57' E 002°34'2312.4
2018-Apr-06 11:34N 52°18' E 002°50'1511.6
2018-Apr-06 10:16N 52°32' E 003°00'2010.4
2018-Apr-06 08:21N 52°50' E 003°13'36 9.7
2018-Apr-06 04:35N 53°25' E 003°30'2 9.7
2018-Apr-06 04:24N 53°27' E 003°31'910.6
2018-Apr-06 03:35N 53°35' E 003°37'211.1
2018-Apr-06 03:27N 53°36' E 003°38'611.1
2018-Apr-06 02:57N 53°42' E 003°41'510.7
2018-Apr-06 02:27N 53°46' E 003°47'611.2
2018-Apr-06 01:52N 53°50' E 003°55'611.0
2018-Apr-06 01:20N 53°54' E 004°02'410.8
2018-Apr-06 00:56N 53°56' E 004°08'510.6
2018-Apr-06 00:30N 53°59' E 004°14'  

Dump ship's entire track history